Time,TemperatureF,DewpointF,PressureIn,WindDirection,WindDirectionDegrees,WindSpeedMPH,WindSpeedGustMPH,Humidity,HourlyPrecipIn,Conditions,Clouds,dailyrainin,SolarRadiationWatts/m^2,SoftwareType,DateUTC
2013-05-07 00:02:00,48.0,39.0,-100.00,NE,53,0.0,4.0,72,0.00,,,0.00,0.000000,,2013-05-07 05:02:00,
2013-05-07 00:10:00,46.0,40.0,-100.00,North,350,0.0,2.0,79,0.00,,,0.00,0.000000,,2013-05-07 05:10:00,
2013-05-07 00:32:00,46.0,40.0,-100.00,North,350,0.0,2.0,79,0.00,,,0.00,0.000000,,2013-05-07 05:32:00,
2013-05-07 00:42:00,46.0,40.0,-100.00,North,350,0.0,2.0,79,0.00,,,0.00,0.000000,,2013-05-07 05:42:00,
2013-05-07 00:52:00,46.0,40.0,-100.00,North,350,0.0,2.0,79,0.00,,,0.00,0.000000,,2013-05-07 05:52:00,
2013-05-07 01:02:00,46.0,40.0,-100.00,North,350,0.0,2.0,79,0.00,,,0.00,0.000000,,2013-05-07 06:02:00,
2013-05-07 01:10:00,45.0,40.0,-100.00,NNE,19,0.0,2.0,83,0.00,,,0.00,0.000000,,2013-05-07 06:10:00,
2013-05-07 01:32:00,45.0,40.0,-100.00,NNE,19,0.0,2.0,83,0.00,,,0.00,0.000000,,2013-05-07 06:32:00,
2013-05-07 01:42:00,45.0,40.0,-100.00,NNE,19,0.0,2.0,83,0.00,,,0.00,0.000000,,2013-05-07 06:42:00,
2013-05-07 01:52:00,45.0,40.0,-100.00,NNE,19,0.0,2.0,83,0.00,,,0.00,0.000000,,2013-05-07 06:52:00,
2013-05-07 02:02:00,45.0,40.0,-100.00,NNE,19,0.0,2.0,83,0.00,,,0.00,0.000000,,2013-05-07 07:02:00,
2013-05-07 02:10:00,43.0,39.0,-100.00,North,1,1.0,3.0,87,0.00,,,0.00,0.000000,,2013-05-07 07:10:00,
2013-05-07 02:42:00,43.0,39.0,-100.00,North,1,1.0,3.0,87,0.00,,,0.00,0.000000,,2013-05-07 07:42:00,
2013-05-07 02:52:00,43.0,39.0,-100.00,North,1,1.0,3.0,87,0.00,,,0.00,0.000000,,2013-05-07 07:52:00,
2013-05-07 03:02:00,43.0,39.0,-100.00,North,1,1.0,3.0,87,0.00,,,0.00,0.000000,,2013-05-07 08:02:00,
2013-05-07 03:10:00,43.0,39.0,-100.00,North,11,1.0,5.0,86,0.00,,,0.00,0.000000,,2013-05-07 08:10:00,
2013-05-07 03:32:00,43.0,39.0,-100.00,North,11,1.0,5.0,86,0.00,,,0.00,0.000000,,2013-05-07 08:32:00,
2013-05-07 03:42:00,43.0,39.0,-100.00,North,11,1.0,5.0,86,0.00,,,0.00,0.000000,,2013-05-07 08:42:00,
2013-05-07 03:52:00,43.0,39.0,-100.00,North,11,1.0,5.0,86,0.00,,,0.00,0.000000,,2013-05-07 08:52:00,
2013-05-07 04:01:00,43.0,39.0,-100.00,North,11,1.0,5.0,86,0.00,,,0.00,0.000000,,2013-05-07 09:01:00,
2013-05-07 04:10:00,42.0,39.0,-100.00,North,7,1.0,1.0,89,0.00,,,0.00,0.000000,,2013-05-07 09:10:00,
2013-05-07 04:33:00,42.0,39.0,-100.00,North,7,1.0,1.0,89,0.00,,,0.00,0.000000,,2013-05-07 09:33:00,
2013-05-07 04:43:00,42.0,39.0,-100.00,North,7,1.0,1.0,89,0.00,,,0.00,0.000000,,2013-05-07 09:43:00,
2013-05-07 04:52:00,42.0,39.0,-100.00,North,7,1.0,1.0,89,0.00,,,0.00,0.000000,,2013-05-07 09:52:00,
2013-05-07 05:03:00,42.0,39.0,-100.00,North,7,1.0,1.0,89,0.00,,,0.00,0.000000,,2013-05-07 10:03:00,
2013-05-07 05:10:00,40.0,38.0,-100.00,NNW,348,0.0,2.0,92,0.00,,,0.00,0.000000,,2013-05-07 10:10:00,
2013-05-07 05:33:00,40.0,38.0,-100.00,NNW,348,0.0,2.0,92,0.00,,,0.00,0.000000,,2013-05-07 10:33:00,
2013-05-07 05:42:00,40.0,38.0,-100.00,NNW,348,0.0,2.0,92,0.00,,,0.00,0.000000,,2013-05-07 10:42:00,
2013-05-07 05:52:00,40.0,38.0,-100.00,NNW,348,0.0,2.0,92,0.00,,,0.00,0.000000,,2013-05-07 10:52:00,
2013-05-07 06:02:00,40.0,38.0,-100.00,NNW,348,0.0,2.0,92,0.00,,,0.00,0.000000,,2013-05-07 11:02:00,
2013-05-07 06:10:00,39.0,38.0,-100.00,North,350,0.0,0.0,95,0.00,,,0.00,5.000000,,2013-05-07 11:10:00,
2013-05-07 06:32:00,39.0,38.0,-100.00,North,350,0.0,0.0,95,0.00,,,0.00,5.000000,,2013-05-07 11:32:00,
2013-05-07 06:42:00,39.0,38.0,-100.00,North,350,0.0,0.0,95,0.00,,,0.00,5.000000,,2013-05-07 11:42:00,
2013-05-07 06:52:00,39.0,38.0,-100.00,North,350,0.0,0.0,95,0.00,,,0.00,5.000000,,2013-05-07 11:52:00,
2013-05-07 07:02:00,39.0,38.0,-100.00,North,350,0.0,0.0,95,0.00,,,0.00,5.000000,,2013-05-07 12:02:00,
2013-05-07 07:10:00,41.0,40.0,-100.00,NNE,20,0.0,0.0,96,0.00,,,-99.99,20.000000,,2013-05-07 12:10:00,
2013-05-07 07:32:00,41.0,40.0,-100.00,NNE,20,0.0,0.0,96,0.00,,,-99.99,20.000000,,2013-05-07 12:32:00,
2013-05-07 07:42:00,41.0,40.0,-100.00,NNE,20,0.0,0.0,96,0.00,,,-99.99,20.000000,,2013-05-07 12:42:00,
2013-05-07 07:52:00,41.0,40.0,-100.00,NNE,20,0.0,0.0,96,0.00,,,-99.99,20.000000,,2013-05-07 12:52:00,
2013-05-07 08:02:00,41.0,40.0,-100.00,NNE,20,0.0,0.0,96,0.00,,,-99.99,20.000000,,2013-05-07 13:02:00,
2013-05-07 08:10:00,51.0,46.0,-100.00,North,11,0.0,1.0,82,0.00,,,-99.99,30.000000,,2013-05-07 13:10:00,
2013-05-07 08:42:00,51.0,46.0,-100.00,North,11,0.0,1.0,82,0.00,,,-99.99,30.000000,,2013-05-07 13:42:00,
2013-05-07 08:52:00,51.0,46.0,-100.00,North,11,0.0,1.0,82,0.00,,,-99.99,30.000000,,2013-05-07 13:52:00,
2013-05-07 09:02:00,51.0,46.0,-100.00,North,11,0.0,1.0,82,0.00,,,-99.99,30.000000,,2013-05-07 14:02:00,
2013-05-07 09:10:00,63.0,41.0,-100.00,South,181,3.0,6.0,45,0.00,,,0.00,398.000000,,2013-05-07 14:10:00,
2013-05-07 09:42:00,63.0,41.0,-100.00,South,181,3.0,6.0,45,0.00,,,0.00,398.000000,,2013-05-07 14:42:00,
2013-05-07 09:52:00,63.0,41.0,-100.00,South,181,3.0,6.0,45,0.00,,,0.00,398.000000,,2013-05-07 14:52:00,
2013-05-07 10:01:00,63.0,41.0,-100.00,South,181,3.0,6.0,45,0.00,,,0.00,398.000000,,2013-05-07 15:01:00,
2013-05-07 10:10:00,70.0,41.0,-100.00,ESE,121,2.0,7.0,35,0.00,,,0.00,610.000000,,2013-05-07 15:10:00,
2013-05-07 10:33:00,70.0,41.0,-100.00,ESE,121,2.0,7.0,35,0.00,,,0.00,610.000000,,2013-05-07 15:33:00,
2013-05-07 10:42:00,70.0,41.0,-100.00,ESE,121,2.0,7.0,35,0.00,,,0.00,610.000000,,2013-05-07 15:42:00,
2013-05-07 10:53:00,70.0,41.0,-100.00,ESE,121,2.0,7.0,35,0.00,,,0.00,610.000000,,2013-05-07 15:53:00,
2013-05-07 11:03:00,70.0,41.0,-100.00,ESE,121,2.0,7.0,35,0.00,,,0.00,610.000000,,2013-05-07 16:03:00,
2013-05-07 13:10:00,75.0,36.0,-100.00,East,85,3.0,6.0,24,-99.99,,,0.00,423.000000,,2013-05-07 18:10:00,
2013-05-07 13:42:00,75.0,36.0,-100.00,East,85,3.0,6.0,24,-99.99,,,0.00,423.000000,,2013-05-07 18:42:00,
2013-05-07 13:52:00,75.0,36.0,-100.00,East,85,3.0,6.0,24,-99.99,,,0.00,423.000000,,2013-05-07 18:52:00,
2013-05-07 14:02:00,75.0,36.0,-100.00,East,85,3.0,6.0,24,-99.99,,,0.00,423.000000,,2013-05-07 19:02:00,
2013-05-07 15:10:00,79.0,36.0,-100.00,SE,143,4.0,11.0,21,-99.99,,,0.00,708.000000,,2013-05-07 20:10:00,
2013-05-07 15:42:00,79.0,36.0,-100.00,SE,143,4.0,11.0,21,-99.99,,,0.00,708.000000,,2013-05-07 20:42:00,
2013-05-07 15:52:00,79.0,36.0,-100.00,SE,143,4.0,11.0,21,-99.99,,,0.00,708.000000,,2013-05-07 20:52:00,
2013-05-07 16:01:00,79.0,36.0,-100.00,SE,143,4.0,11.0,21,-99.99,,,0.00,708.000000,,2013-05-07 21:01:00,
2013-05-07 16:10:00,76.0,32.0,-100.00,SSW,209,3.0,9.0,20,0.00,,,0.00,299.000000,,2013-05-07 21:10:00,
2013-05-07 16:33:00,76.0,32.0,-100.00,SSW,209,3.0,9.0,20,0.00,,,0.00,299.000000,,2013-05-07 21:33:00,
2013-05-07 16:43:00,76.0,32.0,-100.00,SSW,209,3.0,9.0,20,0.00,,,0.00,299.000000,,2013-05-07 21:43:00,
2013-05-07 16:53:00,76.0,32.0,-100.00,SSW,209,3.0,9.0,20,0.00,,,0.00,299.000000,,2013-05-07 21:53:00,
2013-05-07 17:02:00,76.0,32.0,-100.00,SSW,209,3.0,9.0,20,0.00,,,0.00,299.000000,,2013-05-07 22:02:00,
2013-05-07 17:10:00,79.0,32.0,-100.00,WNW,285,4.0,9.0,18,0.00,,,0.00,453.000000,,2013-05-07 22:10:00,
2013-05-07 17:33:00,79.0,32.0,-100.00,WNW,285,4.0,9.0,18,0.00,,,0.00,453.000000,,2013-05-07 22:33:00,
2013-05-07 17:42:00,79.0,32.0,-100.00,WNW,285,4.0,9.0,18,0.00,,,0.00,453.000000,,2013-05-07 22:42:00,
2013-05-07 17:52:00,79.0,32.0,-100.00,WNW,285,4.0,9.0,18,0.00,,,0.00,453.000000,,2013-05-07 22:52:00,
2013-05-07 18:02:00,79.0,32.0,-100.00,WNW,285,4.0,9.0,18,0.00,,,0.00,453.000000,,2013-05-07 23:02:00,
2013-05-07 18:10:00,74.0,29.0,-100.00,West,272,4.0,10.0,19,0.00,,,0.00,332.000000,,2013-05-07 23:10:00,
2013-05-07 18:32:00,74.0,29.0,-100.00,West,272,4.0,10.0,19,0.00,,,0.00,332.000000,,2013-05-07 23:32:00,
2013-05-07 18:42:00,74.0,29.0,-100.00,West,272,4.0,10.0,19,0.00,,,0.00,332.000000,,2013-05-07 23:42:00,
2013-05-07 18:52:00,74.0,29.0,-100.00,West,272,4.0,10.0,19,0.00,,,0.00,332.000000,,2013-05-07 23:52:00,
2013-05-07 19:02:00,74.0,29.0,-100.00,West,272,4.0,10.0,19,0.00,,,0.00,332.000000,,2013-05-08 00:02:00,
2013-05-07 19:10:00,72.0,33.0,-100.00,WNW,293,2.0,7.0,24,0.00,,,-99.99,90.000000,,2013-05-08 00:10:00,
2013-05-07 19:42:00,72.0,33.0,-100.00,WNW,293,2.0,7.0,24,0.00,,,-99.99,90.000000,,2013-05-08 00:42:00,
2013-05-07 19:52:00,72.0,33.0,-100.00,WNW,293,2.0,7.0,24,0.00,,,-99.99,90.000000,,2013-05-08 00:52:00,
2013-05-07 20:02:00,72.0,33.0,-100.00,WNW,293,2.0,7.0,24,0.00,,,-99.99,90.000000,,2013-05-08 01:02:00,
2013-05-07 20:10:00,64.0,41.0,-100.00,WSW,243,0.0,3.0,43,0.00,,,0.00,18.000000,,2013-05-08 01:10:00,
2013-05-07 20:32:00,64.0,41.0,-100.00,WSW,243,0.0,3.0,43,0.00,,,0.00,18.000000,,2013-05-08 01:32:00,
2013-05-07 20:42:00,64.0,41.0,-100.00,WSW,243,0.0,3.0,43,0.00,,,0.00,18.000000,,2013-05-08 01:42:00,
2013-05-07 20:52:00,64.0,41.0,-100.00,WSW,243,0.0,3.0,43,0.00,,,0.00,18.000000,,2013-05-08 01:52:00,
2013-05-07 21:02:00,64.0,41.0,-100.00,WSW,243,0.0,3.0,43,0.00,,,0.00,18.000000,,2013-05-08 02:02:00,
2013-05-07 21:10:00,60.0,43.0,-100.00,NNE,20,1.0,4.0,53,0.00,,,0.00,0.000000,,2013-05-08 02:10:00,
2013-05-07 21:32:00,60.0,43.0,-100.00,NNE,20,1.0,4.0,53,0.00,,,0.00,0.000000,,2013-05-08 02:32:00,
2013-05-07 21:42:00,60.0,43.0,-100.00,NNE,20,1.0,4.0,53,0.00,,,0.00,0.000000,,2013-05-08 02:42:00,
2013-05-07 21:52:00,60.0,43.0,-100.00,NNE,20,1.0,4.0,53,0.00,,,0.00,0.000000,,2013-05-08 02:52:00,
2013-05-07 22:02:00,60.0,43.0,-100.00,NNE,20,1.0,4.0,53,0.00,,,0.00,0.000000,,2013-05-08 03:02:00,
2013-05-07 22:10:00,57.0,43.0,-100.00,WSW,238,0.0,1.0,60,0.00,,,0.00,0.000000,,2013-05-08 03:10:00,
2013-05-07 22:33:00,57.0,43.0,-100.00,WSW,238,0.0,1.0,60,0.00,,,0.00,0.000000,,2013-05-08 03:33:00,
2013-05-07 22:43:00,57.0,43.0,-100.00,WSW,238,0.0,1.0,60,0.00,,,0.00,0.000000,,2013-05-08 03:43:00,
2013-05-07 22:52:00,57.0,43.0,-100.00,WSW,238,0.0,1.0,60,0.00,,,0.00,0.000000,,2013-05-08 03:52:00,
2013-05-07 23:02:00,57.0,43.0,-100.00,WSW,238,0.0,1.0,60,0.00,,,0.00,0.000000,,2013-05-08 04:02:00,
2013-05-07 23:10:00,54.0,44.0,-100.00,NNE,26,0.0,0.0,69,0.00,,,0.00,0.000000,,2013-05-08 04:10:00,
2013-05-07 23:43:00,54.0,44.0,-100.00,NNE,26,0.0,0.0,69,0.00,,,0.00,0.000000,,2013-05-08 04:43:00,
2013-05-07 23:53:00,54.0,44.0,-100.00,NNE,26,0.0,0.0,69,0.00,,,0.00,0.000000,,2013-05-08 04:53:00,